Time;durP1;ratioP1;P1;durP2;ratioP2;P2;SDS_P1;SDS_P2;PMS_P1;PMS_P2;Temp;Humidity;BMP_temperature;BMP_pressure;BME280_temperature;BME280_humidity;BME280_pressure;Samples;Min_cycle;Max_cycle;Signal;HPM_P1;HPM_P2
2024/01/13 00:02:05;;;;;;;;;;;;;;;17.81;31.97;101411.81;5078114;28;1078;-50
2024/01/13 00:04:30;;;;;;;;;;;;;;;16.92;33.02;101414.00;5078796;28;1099;-49
2024/01/13 00:06:56;;;;;;;;;;;;;;;16.31;34.30;101418.63;5078400;28;1110;-50
2024/01/13 00:09:21;;;;;;;;;;;;;;;16.33;34.29;101415.88;5078711;28;916;-49
2024/01/13 00:11:47;;;;;;;;;;;;;;;17.72;32.09;101405.28;5078182;28;1055;-50
2024/01/13 00:14:12;;;;;;;;;;;;;;;17.20;32.39;101396.31;5067135;28;1910;-50
2024/01/13 00:16:38;;;;;;;;;;;;;;;16.40;33.99;101402.09;5076828;28;1075;-50
2024/01/13 00:19:03;;;;;;;;;;;;;;;16.72;33.64;101392.22;5067458;28;1044;-52
2024/01/13 00:21:29;;;;;;;;;;;;;;;17.92;31.71;101395.09;5078060;28;897;-49
2024/01/13 00:23:56;;;;;;;;;;;;;;;16.89;33.11;101391.16;5067889;28;1055;-48
2024/01/13 00:26:22;;;;;;;;;;;;;;;16.26;34.29;101392.34;5071745;28;1075;-49
2024/01/13 00:28:47;;;;;;;;;;;;;;;16.30;34.38;101395.66;5070067;28;1083;-50
2024/01/13 00:31:13;;;;;;;;;;;;;;;17.71;32.02;101394.75;5078141;28;1087;-49
2024/01/13 00:33:43;;;;;;;;;;;;;;;17.13;32.71;101387.91;5060380;28;1914;-50
2024/01/13 00:36:09;;;;;;;;;;;;;;;16.39;34.15;101388.94;5064559;28;1095;-51
2024/01/13 00:38:35;;;;;;;;;;;;;;;16.79;33.67;101387.38;5078933;28;1154;-50
2024/01/13 00:41:00;;;;;;;;;;;;;;;17.93;31.46;101383.50;5059360;28;1027;-51
2024/01/13 00:43:26;;;;;;;;;;;;;;;16.83;33.19;101379.09;5070118;28;1051;-48
2024/01/13 00:45:52;;;;;;;;;;;;;;;16.23;34.35;101389.88;5073138;28;1094;-51
2024/01/13 00:48:17;;;;;;;;;;;;;;;16.45;34.38;101385.06;5069468;28;1046;-48
2024/01/13 00:50:43;;;;;;;;;;;;;;;17.79;31.77;101383.59;5078100;28;960;-48
2024/01/13 00:53:08;;;;;;;;;;;;;;;17.05;32.81;101382.19;5078362;28;1973;-50
2024/01/13 00:55:34;;;;;;;;;;;;;;;16.26;34.32;101383.53;5062652;28;1199;-51
2024/01/13 00:57:59;;;;;;;;;;;;;;;16.32;34.46;101379.63;5069862;28;1100;-51
2024/01/13 01:00:25;;;;;;;;;;;;;;;17.69;32.01;101375.38;5064567;28;1083;-51
2024/01/13 01:02:51;;;;;;;;;;;;;;;17.10;32.92;101380.97;5077865;28;1118;-50
2024/01/13 01:05:16;;;;;;;;;;;;;;;16.35;33.88;101384.78;5077566;28;1055;-51
2024/01/13 01:07:42;;;;;;;;;;;;;;;15.90;34.99;101385.63;5075694;28;1115;-48
2024/01/13 01:10:08;;;;;;;;;;;;;;;17.17;32.89;101386.72;5062601;28;1576;-50
2024/01/13 01:12:33;;;;;;;;;;;;;;;17.79;31.57;101384.44;5074099;28;1413;-50
2024/01/13 01:14:59;;;;;;;;;;;;;;;16.70;33.46;101379.03;5072190;28;1918;-50
2024/01/13 01:17:24;;;;;;;;;;;;;;;16.08;34.58;101381.03;5074184;28;1183;-49
2024/01/13 01:19:50;;;;;;;;;;;;;;;16.64;33.59;101376.75;5075949;28;1103;-49
2024/01/13 01:22:16;;;;;;;;;;;;;;;17.84;31.65;101370.81;5077453;28;1149;-48
2024/01/13 01:24:41;;;;;;;;;;;;;;;16.96;32.95;101368.56;5073429;28;1023;-49
2024/01/13 01:27:07;;;;;;;;;;;;;;;16.30;34.03;101370.94;5067965;28;1091;-48
2024/01/13 01:29:33;;;;;;;;;;;;;;;16.85;33.25;101373.72;5076899;28;1130;-49
2024/01/13 01:31:58;;;;;;;;;;;;;;;17.80;31.76;101370.16;5069776;28;1093;-50
2024/01/13 01:34:24;;;;;;;;;;;;;;;16.68;33.32;101362.34;5076854;28;1906;-47
2024/01/13 01:36:49;;;;;;;;;;;;;;;16.15;34.39;101361.16;5067222;28;1154;-50
2024/01/13 01:39:15;;;;;;;;;;;;;;;16.84;33.60;101353.38;5070580;28;1055;-51
2024/01/13 01:41:40;;;;;;;;;;;;;;;17.94;31.60;101345.28;5066683;28;1055;-49
2024/01/13 01:44:06;;;;;;;;;;;;;;;16.91;33.01;101346.72;5060472;28;1114;-49
2024/01/13 01:46:31;;;;;;;;;;;;;;;16.32;34.09;101345.09;5057102;28;1131;-50
2024/01/13 01:48:58;;;;;;;;;;;;;;;16.10;34.54;101341.16;5041977;28;1068;-47
2024/01/13 01:51:24;;;;;;;;;;;;;;;17.56;32.14;101332.78;5077370;28;1028;-48
2024/01/13 01:53:50;;;;;;;;;;;;;;;17.26;32.49;101318.81;5042300;28;1906;-47
2024/01/13 01:56:22;;;;;;;;;;;;;;;16.39;33.77;101320.75;5048763;28;1229;-46
2024/01/13 01:58:49;;;;;;;;;;;;;;;16.93;33.09;101315.59;5056351;28;1061;-50
2024/01/13 02:01:15;;;;;;;;;;;;;;;17.99;31.42;101319.19;5059241;28;1146;-52
2024/01/13 02:03:40;;;;;;;;;;;;;;;16.84;33.27;101316.19;5058450;28;1071;-50
2024/01/13 02:06:06;;;;;;;;;;;;;;;16.22;34.16;101313.84;5076961;28;1146;-49
2024/01/13 02:08:32;;;;;;;;;;;;;;;15.93;35.02;101302.34;5075778;28;1087;-50
2024/01/13 02:10:58;;;;;;;;;;;;;;;17.33;32.77;101300.63;5076373;28;1067;-49
2024/01/13 02:13:26;;;;;;;;;;;;;;;17.56;31.91;101300.88;5076128;28;1915;-48
2024/01/13 02:15:51;;;;;;;;;;;;;;;16.54;33.59;101304.78;5076030;28;1334;-47
2024/01/13 02:18:17;;;;;;;;;;;;;;;16.00;34.65;101301.03;5069630;28;921;-51
2024/01/13 02:20:43;;;;;;;;;;;;;;;17.32;32.53;101296.25;5061697;28;1090;-51
2024/01/13 02:23:08;;;;;;;;;;;;;;;17.32;32.11;101294.44;5056819;28;1015;-49
2024/01/13 02:25:34;;;;;;;;;;;;;;;16.42;33.86;101298.44;5061918;28;1575;-49
2024/01/13 02:27:59;;;;;;;;;;;;;;;16.19;34.23;101300.75;5066351;28;1502;-51
2024/01/13 02:30:25;;;;;;;;;;;;;;;17.60;32.06;101302.38;5067780;28;1148;-51
2024/01/13 02:32:50;;;;;;;;;;;;;;;17.40;32.15;101296.59;5073921;28;1988;-48
2024/01/13 02:35:16;;;;;;;;;;;;;;;16.47;33.90;101304.31;5067685;28;1120;-49
2024/01/13 02:37:42;;;;;;;;;;;;;;;16.11;34.11;101297.72;5071746;28;1058;-48
2024/01/13 02:40:10;;;;;;;;;;;;;;;17.53;32.11;101295.75;5075583;28;979;-52
2024/01/13 02:42:36;;;;;;;;;;;;;;;17.16;32.77;101288.47;5071819;28;1110;-47
2024/01/13 02:45:01;;;;;;;;;;;;;;;16.37;33.75;101289.91;5062764;28;1051;-50
2024/01/13 02:47:32;;;;;;;;;;;;;;;15.93;34.67;101287.28;5075943;28;1130;-46
2024/01/13 02:49:58;;;;;;;;;;;;;;;17.04;32.99;101290.97;5050775;28;1111;-47
2024/01/13 02:52:24;;;;;;;;;;;;;;;17.81;31.47;101288.53;5075858;28;1035;-48
2024/01/13 02:54:49;;;;;;;;;;;;;;;16.68;33.46;101279.13;5075995;28;1905;-50
2024/01/13 02:57:15;;;;;;;;;;;;;;;16.13;34.54;101279.91;5071349;28;1087;-49
2024/01/13 02:59:41;;;;;;;;;;;;;;;16.98;33.20;101289.53;5067936;28;1070;-49
2024/01/13 03:02:06;;;;;;;;;;;;;;;17.77;31.67;101289.72;5075368;28;1109;-49
2024/01/13 03:04:32;;;;;;;;;;;;;;;16.71;33.31;101286.91;5076168;28;1126;-49
2024/01/13 03:06:57;;;;;;;;;;;;;;;16.14;34.04;101279.81;5076027;28;1070;-50
2024/01/13 03:09:23;;;;;;;;;;;;;;;17.00;33.01;101278.81;5064215;28;1298;-49
2024/01/13 03:11:48;;;;;;;;;;;;;;;17.90;31.46;101279.06;5060080;28;874;-49
2024/01/13 03:14:14;;;;;;;;;;;;;;;16.75;33.40;101280.44;5064979;28;1897;-47
2024/01/13 03:16:40;;;;;;;;;;;;;;;16.14;34.34;101276.31;5073440;28;1044;-49
2024/01/13 03:19:06;;;;;;;;;;;;;;;16.65;33.46;101266.88;5073243;28;1349;-45
2024/01/13 03:21:31;;;;;;;;;;;;;;;17.86;31.74;101275.75;5068204;28;1075;-47
2024/01/13 03:23:57;;;;;;;;;;;;;;;16.88;32.71;101277.84;5074828;28;1060;-53
2024/01/13 03:26:23;;;;;;;;;;;;;;;16.24;34.25;101276.56;5076180;28;1190;-46
2024/01/13 03:28:48;;;;;;;;;;;;;;;17.05;32.97;101260.75;5075080;28;1254;-49
2024/01/13 03:31:14;;;;;;;;;;;;;;;17.75;31.61;101260.53;5072213;28;1333;-49
2024/01/13 03:33:39;;;;;;;;;;;;;;;16.62;33.56;101261.78;5069179;28;1989;-52
2024/01/13 03:36:05;;;;;;;;;;;;;;;16.09;34.26;101254.50;5058057;28;1110;-49
2024/01/13 03:38:31;;;;;;;;;;;;;;;16.38;33.92;101257.94;5070467;28;1134;-50
2024/01/13 03:40:56;;;;;;;;;;;;;;;17.71;31.84;101267.88;5075533;28;1071;-50
2024/01/13 03:43:22;;;;;;;;;;;;;;;17.18;32.36;101263.50;5073971;28;983;-45
2024/01/13 03:45:47;;;;;;;;;;;;;;;16.37;34.21;101256.25;5061485;28;1195;-52
2024/01/13 03:48:13;;;;;;;;;;;;;;;16.49;33.75;101251.97;5059588;28;1075;-53
2024/01/13 03:50:38;;;;;;;;;;;;;;;17.87;31.76;101261.47;5060122;28;1056;-53
2024/01/13 03:53:04;;;;;;;;;;;;;;;17.15;32.50;101261.00;5069025;28;1971;-53
2024/01/13 03:55:30;;;;;;;;;;;;;;;16.39;33.77;101264.13;5075780;28;1071;-57
2024/01/13 03:57:55;;;;;;;;;;;;;;;16.00;34.57;101263.88;5068940;28;1134;-54
2024/01/13 04:00:21;;;;;;;;;;;;;;;17.34;32.58;101260.63;5065035;28;1413;-44
2024/01/13 04:02:46;;;;;;;;;;;;;;;17.63;31.68;101256.94;5073641;28;1102;-43
2024/01/13 04:05:12;;;;;;;;;;;;;;;16.58;33.46;101254.97;5078790;28;1079;-49
2024/01/13 04:07:38;;;;;;;;;;;;;;;16.10;34.45;101262.38;5076172;28;1322;-44
2024/01/13 04:10:03;;;;;;;;;;;;;;;16.87;33.45;101260.16;5070368;28;1056;-45
2024/01/13 04:12:30;;;;;;;;;;;;;;;17.98;31.50;101255.41;5072786;28;1408;-49
2024/01/13 04:14:55;;;;;;;;;;;;;;;17.01;32.82;101252.16;5071101;28;1901;-47
2024/01/13 04:17:21;;;;;;;;;;;;;;;16.26;34.48;101249.00;5065750;28;1154;-47
2024/01/13 04:19:46;;;;;;;;;;;;;;;16.18;34.37;101237.16;5065726;28;1174;-50
2024/01/13 04:22:12;;;;;;;;;;;;;;;17.62;32.20;101245.44;5078272;28;1046;-48
2024/01/13 04:24:37;;;;;;;;;;;;;;;17.31;32.47;101239.56;5078441;28;1082;-52
2024/01/13 04:27:03;;;;;;;;;;;;;;;16.48;33.94;101241.44;5068681;28;1170;-51
2024/01/13 04:29:29;;;;;;;;;;;;;;;16.01;34.69;101244.38;5075528;28;1151;-52
2024/01/13 04:31:54;;;;;;;;;;;;;;;17.27;32.55;101251.38;5068118;28;1058;-48
2024/01/13 04:34:20;;;;;;;;;;;;;;;17.53;31.96;101238.09;5068822;28;1993;-49
2024/01/13 04:36:46;;;;;;;;;;;;;;;16.56;33.87;101239.16;5078704;28;1103;-51
2024/01/13 04:39:12;;;;;;;;;;;;;;;16.01;34.64;101250.53;5077791;28;1066;-50
2024/01/13 04:41:41;;;;;;;;;;;;;;;16.87;33.51;101260.16;5078662;28;1086;-48
2024/01/13 04:44:07;;;;;;;;;;;;;;;17.84;31.64;101248.38;5063899;28;1098;-52
2024/01/13 04:46:33;;;;;;;;;;;;;;;16.65;33.52;101242.97;5064402;28;1388;-54
2024/01/13 04:48:59;;;;;;;;;;;;;;;16.10;34.52;101243.78;5050302;28;1160;-51
2024/01/13 04:51:24;;;;;;;;;;;;;;;16.98;33.20;101236.38;5078351;28;1166;-52
2024/01/13 04:53:50;;;;;;;;;;;;;;;17.84;31.73;101237.75;5078455;28;1996;-54
2024/01/13 04:56:16;;;;;;;;;;;;;;;16.72;33.65;101220.38;5076137;28;1344;-54
2024/01/13 04:58:41;;;;;;;;;;;;;;;16.26;34.52;101226.91;5065844;28;999;-53
2024/01/13 05:01:07;;;;;;;;;;;;;;;16.53;34.38;101212.78;5059417;28;1048;-52
2024/01/13 05:03:34;;;;;;;;;;;;;;;17.98;31.13;101218.97;5078053;28;1095;-57
2024/01/13 05:06:00;;;;;;;;;;;;;;;17.01;32.52;101217.59;5078129;28;1139;-55
2024/01/13 05:08:25;;;;;;;;;;;;;;;16.21;34.43;101224.53;5077400;28;1011;-51
2024/01/13 05:10:51;;;;;;;;;;;;;;;16.58;33.90;101218.63;5071136;28;984;-50
2024/01/13 05:13:17;;;;;;;;;;;;;;;17.83;31.65;101218.25;5077728;28;1979;-49
2024/01/13 05:15:42;;;;;;;;;;;;;;;16.90;33.00;101214.78;5077431;28;1179;-49
2024/01/13 05:18:08;;;;;;;;;;;;;;;16.22;34.00;101206.78;5068335;28;1066;-51
2024/01/13 05:20:34;;;;;;;;;;;;;;;17.02;32.97;101215.78;5078018;28;1234;-45
2024/01/13 05:23:00;;;;;;;;;;;;;;;17.59;31.74;101215.53;5067609;28;1402;-54
2024/01/13 05:25:25;;;;;;;;;;;;;;;16.00;34.70;101209.03;5067400;28;1153;-49
2024/01/13 05:27:51;;;;;;;;;;;;;;;15.35;36.11;101221.78;5074418;28;1067;-47
2024/01/13 05:30:16;;;;;;;;;;;;;;;17.57;32.25;101206.78;5077150;28;1067;-51
2024/01/13 05:32:42;;;;;;;;;;;;;;;16.32;34.10;101196.44;5077036;28;1272;-49
2024/01/13 05:35:08;;;;;;;;;;;;;;;15.37;35.77;101193.38;5073717;28;1906;-50
2024/01/13 05:37:34;;;;;;;;;;;;;;;15.11;36.55;101198.47;5077002;28;1046;-49
2024/01/13 05:40:00;;;;;;;;;;;;;;;17.32;32.58;101198.72;5077647;28;1203;-49
2024/01/13 05:42:25;;;;;;;;;;;;;;;16.55;33.52;101196.75;5077026;28;1098;-50
2024/01/13 05:44:51;;;;;;;;;;;;;;;15.55;35.46;101204.66;5076828;28;1031;-49
2024/01/13 05:47:17;;;;;;;;;;;;;;;17.46;32.45;101210.22;5066308;28;1071;-47
2024/01/13 05:49:43;;;;;;;;;;;;;;;16.23;34.15;101203.22;5077346;28;1032;-49
2024/01/13 05:52:10;;;;;;;;;;;;;;;15.40;35.96;101202.94;5076553;28;1123;-50
2024/01/13 05:54:39;;;;;;;;;;;;;;;15.12;36.36;101200.16;5077480;28;1905;-46
2024/01/13 05:57:04;;;;;;;;;;;;;;;17.41;32.48;101196.38;5063362;28;1098;-52
2024/01/13 05:59:30;;;;;;;;;;;;;;;16.30;34.26;101199.19;5072449;28;903;-48
2024/01/13 06:01:56;;;;;;;;;;;;;;;16.11;34.68;101207.50;5076008;28;1031;-48
2024/01/13 06:04:22;;;;;;;;;;;;;;;17.99;31.45;101214.50;5077173;28;1074;-48
2024/01/13 06:06:47;;;;;;;;;;;;;;;16.20;34.51;101214.03;5069235;28;1215;-49
2024/01/13 06:09:13;;;;;;;;;;;;;;;16.28;34.44;101204.59;5067664;28;1039;-48
2024/01/13 06:11:42;;;;;;;;;;;;;;;17.58;31.91;101209.34;5065744;28;1104;-52
2024/01/13 06:14:08;;;;;;;;;;;;;;;16.00;34.90;101203.72;5076423;28;1898;-50
2024/01/13 06:16:33;;;;;;;;;;;;;;;17.33;32.76;101203.06;5075698;28;1024;-51
2024/01/13 06:18:59;;;;;;;;;;;;;;;17.79;31.68;101199.97;5076405;28;1070;-48
2024/01/13 06:21:24;;;;;;;;;;;;;;;16.19;34.27;101199.91;5065328;28;1180;-50
2024/01/13 06:23:50;;;;;;;;;;;;;;;17.08;33.26;101203.88;5070732;28;861;-49
2024/01/13 06:26:16;;;;;;;;;;;;;;;18.04;31.38;101206.19;5076481;28;1171;-52
2024/01/13 06:28:41;;;;;;;;;;;;;;;16.34;34.29;101205.16;5075886;28;1055;-51
2024/01/13 06:31:07;;;;;;;;;;;;;;;15.76;35.60;101212.25;5076281;28;1151;-46
2024/01/13 06:33:32;;;;;;;;;;;;;;;17.93;31.78;101212.28;5073029;28;1905;-48
2024/01/13 06:35:58;;;;;;;;;;;;;;;16.53;33.81;101213.63;5060639;28;1076;-51
2024/01/13 06:38:24;;;;;;;;;;;;;;;15.85;35.37;101213.44;5076207;28;1139;-54
2024/01/13 06:40:49;;;;;;;;;;;;;;;16.85;33.79;101219.59;5075999;28;1023;-56
2024/01/13 06:43:15;;;;;;;;;;;;;;;17.66;32.02;101214.16;5076059;28;1024;-52
2024/01/13 06:45:40;;;;;;;;;;;;;;;16.00;34.87;101208.16;5076121;28;1055;-54
2024/01/13 06:48:06;;;;;;;;;;;;;;;17.02;33.39;101211.31;5069244;28;941;-51
2024/01/13 06:50:32;;;;;;;;;;;;;;;17.49;32.32;101210.00;5075738;28;1043;-52
2024/01/13 06:52:57;;;;;;;;;;;;;;;16.13;34.54;101203.78;5076353;28;1977;-49
2024/01/13 06:55:24;;;;;;;;;;;;;;;15.60;35.58;101204.38;5076243;28;1062;-48
2024/01/13 06:57:51;;;;;;;;;;;;;;;17.47;32.67;101212.75;5075969;28;1012;-56
2024/01/13 07:00:17;;;;;;;;;;;;;;;16.80;33.21;101203.94;5075016;28;882;-55
2024/01/13 07:02:44;;;;;;;;;;;;;;;15.99;34.97;101204.66;5058392;28;1047;-53
2024/01/13 07:05:10;;;;;;;;;;;;;;;18.16;31.48;101209.81;5075561;28;1105;-49
2024/01/13 07:07:36;;;;;;;;;;;;;;;16.58;33.91;101201.84;5076558;28;1028;-44
2024/01/13 07:10:04;;;;;;;;;;;;;;;15.87;34.96;101202.75;5075997;28;1242;-48
2024/01/13 07:12:29;;;;;;;;;;;;;;;15.77;35.73;101205.97;5059993;28;884;-55
2024/01/13 07:14:55;;;;;;;;;;;;;;;17.93;31.81;101198.97;5077404;28;1914;-54
2024/01/13 07:17:21;;;;;;;;;;;;;;;16.34;34.24;101194.53;5079660;28;1150;-47
2024/01/13 07:19:46;;;;;;;;;;;;;;;17.25;33.14;101197.44;5079400;28;1078;-49
2024/01/13 07:22:12;;;;;;;;;;;;;;;17.30;32.48;101194.47;5079997;28;1139;-47
2024/01/13 07:24:37;;;;;;;;;;;;;;;16.06;34.61;101189.22;5077601;28;907;-50
2024/01/13 07:27:03;;;;;;;;;;;;;;;16.98;33.47;101190.38;5080070;28;1218;-48
2024/01/13 07:29:29;;;;;;;;;;;;;;;17.06;32.76;101176.56;5079014;28;1121;-51
2024/01/13 07:31:54;;;;;;;;;;;;;;;17.12;33.14;101184.13;5079835;28;1055;-53
2024/01/13 07:34:21;;;;;;;;;;;;;;;18.66;30.51;101182.22;5079170;28;1917;-47
2024/01/13 07:36:46;;;;;;;;;;;;;;;16.95;33.15;101170.16;5069664;28;862;-47
2024/01/13 07:39:12;;;;;;;;;;;;;;;18.30;31.18;101183.00;5079039;28;1055;-45
2024/01/13 07:41:38;;;;;;;;;;;;;;;18.29;30.84;101176.00;5079068;28;1055;-49
2024/01/13 07:44:07;;;;;;;;;;;;;;;16.77;33.62;101166.94;5061393;28;1151;-43
2024/01/13 07:46:38;;;;;;;;;;;;;;;18.49;30.91;101165.66;5078995;28;1094;-49
2024/01/13 07:49:04;;;;;;;;;;;;;;;17.20;32.71;101162.34;5075442;28;1078;-46
2024/01/13 07:51:29;;;;;;;;;;;;;;;16.32;34.37;101157.47;5068419;28;1211;-45
2024/01/13 07:53:56;;;;;;;;;;;;;;;16.03;35.11;101158.41;5068539;28;1968;-49
2024/01/13 07:56:22;;;;;;;;;;;;;;;15.75;35.10;101165.44;5071022;28;1215;-47
2024/01/13 07:58:47;;;;;;;;;;;;;;;17.50;32.51;101163.81;5077481;28;1325;-49
2024/01/13 08:01:13;;;;;;;;;;;;;;;16.51;33.66;101166.88;5078261;28;1341;-49
2024/01/13 08:03:39;;;;;;;;;;;;;;;15.83;34.71;101170.25;5078895;28;1361;-44
2024/01/13 08:06:04;;;;;;;;;;;;;;;15.45;35.47;101168.22;5078139;28;1258;-48
2024/01/13 08:08:30;;;;;;;;;;;;;;;15.20;36.24;101164.41;5078233;28;1293;-46
2024/01/13 08:10:55;;;;;;;;;;;;;;;15.19;36.15;101163.53;5078127;28;1356;-49
2024/01/13 08:13:21;;;;;;;;;;;;;;;16.29;34.11;101170.94;5078724;28;1976;-47
2024/01/13 08:15:47;;;;;;;;;;;;;;;17.01;32.45;101175.06;5078402;28;1273;-47
2024/01/13 08:18:12;;;;;;;;;;;;;;;15.67;34.60;101165.91;5078220;28;1131;-48
2024/01/13 08:20:38;;;;;;;;;;;;;;;16.38;33.95;101172.16;5078251;28;1383;-50
2024/01/13 08:23:04;;;;;;;;;;;;;;;17.94;31.05;101158.09;5075805;28;1043;-48
2024/01/13 08:25:29;;;;;;;;;;;;;;;16.13;33.70;101158.66;5073813;28;1087;-46
2024/01/13 08:27:55;;;;;;;;;;;;;;;15.51;35.05;101158.06;5078397;28;1530;-51
2024/01/13 08:30:21;;;;;;;;;;;;;;;15.47;34.95;101156.53;5078236;28;1062;-50
2024/01/13 08:32:46;;;;;;;;;;;;;;;17.68;31.43;101167.00;5078286;28;1166;-45
2024/01/13 08:35:12;;;;;;;;;;;;;;;16.13;33.79;101163.97;5078037;28;1910;-51
2024/01/13 08:37:37;;;;;;;;;;;;;;;15.54;34.95;101159.69;5078626;28;1126;-50
2024/01/13 08:40:04;;;;;;;;;;;;;;;15.35;35.16;101165.28;5078195;28;1023;-51
2024/01/13 08:42:30;;;;;;;;;;;;;;;17.54;31.54;101160.00;5077353;28;1397;-46
2024/01/13 08:44:56;;;;;;;;;;;;;;;16.24;33.17;101157.13;5075658;28;1098;-45
2024/01/13 08:47:23;;;;;;;;;;;;;;;15.54;34.68;101154.38;5070826;28;1157;-47
2024/01/13 08:49:48;;;;;;;;;;;;;;;15.15;35.47;101143.47;5077627;28;1106;-49
2024/01/13 08:52:14;;;;;;;;;;;;;;;16.96;32.61;101144.44;5064426;28;1242;-47
2024/01/13 08:54:39;;;;;;;;;;;;;;;18.05;30.39;101144.00;5078571;28;1905;-47
2024/01/13 08:57:05;;;;;;;;;;;;;;;16.20;33.03;101132.56;5077502;28;1079;-48
2024/01/13 08:59:33;;;;;;;;;;;;;;;15.50;34.42;101139.59;5055953;28;1097;-48
2024/01/13 09:01:59;;;;;;;;;;;;;;;17.06;32.26;101134.88;5071012;28;1091;-47
2024/01/13 09:04:24;;;;;;;;;;;;;;;17.48;30.96;101126.69;5077240;28;1120;-47
2024/01/13 09:06:50;;;;;;;;;;;;;;;16.06;33.55;101119.34;5077494;28;1103;-51
2024/01/13 09:09:16;;;;;;;;;;;;;;;15.47;34.36;101110.63;5078119;28;1125;-48
2024/01/13 09:11:41;;;;;;;;;;;;;;;16.44;33.35;101100.06;5073184;28;1198;-50
2024/01/13 09:14:07;;;;;;;;;;;;;;;16.76;32.22;101099.69;5069230;28;1969;-47
2024/01/13 09:16:32;;;;;;;;;;;;;;;15.63;34.17;101099.91;5078027;28;1035;-50
2024/01/13 09:18:58;;;;;;;;;;;;;;;15.24;34.77;101097.00;5076672;28;1020;-50
2024/01/13 09:21:24;;;;;;;;;;;;;;;17.49;31.09;101099.13;5077817;28;1210;-50
2024/01/13 09:23:50;;;;;;;;;;;;;;;16.67;32.33;101094.13;5072396;28;1193;-50
2024/01/13 09:26:17;;;;;;;;;;;;;;;15.66;34.19;101089.09;5074972;28;1214;-49
2024/01/13 09:28:43;;;;;;;;;;;;;;;17.00;32.13;101084.78;5077409;28;1417;-50
2024/01/13 09:31:08;;;;;;;;;;;;;;;16.61;32.27;101088.31;5077032;28;1162;-48
2024/01/13 09:33:34;;;;;;;;;;;;;;;15.64;34.10;101078.59;5076324;28;1909;-49
2024/01/13 09:35:59;;;;;;;;;;;;;;;17.36;31.34;101095.66;5075078;28;1035;-48
2024/01/13 09:38:25;;;;;;;;;;;;;;;16.13;32.88;101067.59;5077080;28;1043;-49
2024/01/13 09:40:51;;;;;;;;;;;;;;;15.51;34.16;101073.22;5071213;28;1231;-50
2024/01/13 09:43:20;;;;;;;;;;;;;;;15.23;34.71;101060.84;5067067;28;1235;-51
2024/01/13 09:45:46;;;;;;;;;;;;;;;15.29;34.96;101066.63;5068553;28;1199;-50
2024/01/13 09:48:11;;;;;;;;;;;;;;;17.45;30.99;101072.88;5042307;28;1274;-51
2024/01/13 09:50:38;;;;;;;;;;;;;;;16.28;32.53;101057.75;5056191;28;1091;-53
2024/01/13 09:53:04;;;;;;;;;;;;;;;15.40;34.41;101055.34;5076528;28;1902;-49
2024/01/13 09:55:30;;;;;;;;;;;;;;;16.35;33.26;101063.50;5053746;28;1211;-47
2024/01/13 09:57:55;;;;;;;;;;;;;;;17.30;31.08;101038.44;5051238;28;1122;-49
2024/01/13 10:00:21;;;;;;;;;;;;;;;15.86;33.30;101042.72;5053500;28;1056;-48
2024/01/13 10:02:46;;;;;;;;;;;;;;;16.12;33.57;101037.53;5076156;28;1146;-52
2024/01/13 10:05:12;;;;;;;;;;;;;;;17.27;31.14;101027.19;5048528;28;1310;-49
2024/01/13 10:07:38;;;;;;;;;;;;;;;15.79;33.73;101034.31;5075958;28;1136;-47
2024/01/13 10:10:05;;;;;;;;;;;;;;;15.53;34.13;101034.19;5059050;28;1234;-46
2024/01/13 10:12:31;;;;;;;;;;;;;;;17.67;30.71;101047.34;5057938;28;1222;-46
2024/01/13 10:14:56;;;;;;;;;;;;;;;16.00;33.04;101039.19;5058625;28;1901;-49
2024/01/13 10:17:22;;;;;;;;;;;;;;;15.48;33.81;101038.94;5074040;28;1143;-45
2024/01/13 10:19:49;;;;;;;;;;;;;;;17.43;30.95;101037.56;5076698;28;1131;-47
2024/01/13 10:22:15;;;;;;;;;;;;;;;16.96;31.28;101030.16;5076548;28;1257;-48
2024/01/13 10:24:41;;;;;;;;;;;;;;;15.87;33.54;101025.00;5070268;28;1512;-47
2024/01/13 10:27:09;;;;;;;;;;;;;;;15.45;34.06;101036.47;5076325;28;1075;-45
2024/01/13 10:29:35;;;;;;;;;;;;;;;17.05;31.70;101050.75;5076883;28;1075;-44
2024/01/13 10:32:01;;;;;;;;;;;;;;;17.02;31.23;101040.34;5076712;28;1015;-49
2024/01/13 10:34:27;;;;;;;;;;;;;;;15.80;33.41;101045.75;5076056;28;1914;-49
2024/01/13 10:36:53;;;;;;;;;;;;;;;15.34;34.20;101041.63;5075976;28;1529;-50
2024/01/13 10:39:18;;;;;;;;;;;;;;;17.38;31.11;101043.22;5076056;28;1316;-51
2024/01/13 10:41:44;;;;;;;;;;;;;;;16.69;31.92;101042.59;5076351;28;1293;-50
2024/01/13 10:44:10;;;;;;;;;;;;;;;15.74;33.60;101030.25;5058174;28;1115;-47
2024/01/13 10:46:36;;;;;;;;;;;;;;;15.91;33.63;101035.28;5047750;28;1333;-46
2024/01/13 10:49:02;;;;;;;;;;;;;;;17.87;30.51;101035.25;5064697;28;1338;-48
2024/01/13 10:51:31;;;;;;;;;;;;;;;16.69;31.78;101033.78;5066996;28;1428;-48
2024/01/13 10:53:58;;;;;;;;;;;;;;;15.72;33.81;101021.53;5067337;28;1906;-47
2024/01/13 10:56:24;;;;;;;;;;;;;;;15.41;34.09;101021.72;5066333;28;1223;-50
2024/01/13 10:58:49;;;;;;;;;;;;;;;17.15;31.45;101036.88;5046882;28;1187;-44
2024/01/13 11:01:15;;;;;;;;;;;;;;;16.79;31.87;101015.41;5064455;28;1262;-46
2024/01/13 11:03:40;;;;;;;;;;;;;;;15.61;33.54;101016.94;5064249;28;1246;-50
2024/01/13 11:06:06;;;;;;;;;;;;;;;17.45;31.06;101027.66;5048004;28;1418;-49
2024/01/13 11:08:31;;;;;;;;;;;;;;;16.81;31.67;101011.69;5063379;28;1286;-47
2024/01/13 11:10:57;;;;;;;;;;;;;;;17.05;31.89;101016.22;5073776;28;1076;-45
2024/01/13 11:13:25;;;;;;;;;;;;;;;18.47;29.24;100994.44;5064662;28;1903;-48
2024/01/13 11:16:04;;;;;;;;;;;;;;;16.46;32.31;100986.63;5076051;28;1063;-50
2024/01/13 11:18:46;;;;;;;;;;;;;;;15.74;33.88;100987.81;5057635;28;1164;-49
2024/01/13 11:21:16;;;;;;;;;;;;;;;15.55;33.88;100981.91;5062417;28;1043;-49
2024/01/13 11:23:45;;;;;;;;;;;;;;;15.26;34.50;100981.16;5076048;28;1233;-45
2024/01/13 11:26:11;;;;;;;;;;;;;;;17.51;30.63;100982.00;5061533;28;1032;-50
2024/01/13 11:28:49;;;;;;;;;;;;;;;16.28;32.55;100972.81;5075872;28;1127;-45
2024/01/13 11:31:33;;;;;;;;;;;;;;;15.73;33.70;100978.16;5075708;28;1059;-50
2024/01/13 11:33:59;;;;;;;;;;;;;;;17.11;31.18;100975.97;5075209;28;1897;-51
2024/01/13 11:36:28;;;;;;;;;;;;;;;15.87;33.01;100974.59;5074702;28;1059;-47
2024/01/13 11:38:55;;;;;;;;;;;;;;;15.38;34.10;100975.03;5069671;28;1024;-44
2024/01/13 11:41:21;;;;;;;;;;;;;;;16.80;31.98;100966.63;5057932;28;1035;-51
2024/01/13 11:43:47;;;;;;;;;;;;;;;16.72;31.55;100968.00;5074488;28;1058;-44
2024/01/13 11:46:13;;;;;;;;;;;;;;;16.12;32.64;100976.47;5057538;28;1297;-47
2024/01/13 11:48:39;;;;;;;;;;;;;;;18.07;29.89;100977.00;5054982;28;1380;-52
2024/01/13 11:51:08;;;;;;;;;;;;;;;16.40;32.39;100955.16;5074904;28;1131;-45
2024/01/13 11:53:39;;;;;;;;;;;;;;;15.72;33.40;100964.03;5075354;28;1897;-50
2024/01/13 11:56:05;;;;;;;;;;;;;;;17.32;30.92;100969.19;5063481;28;1159;-48
2024/01/13 11:58:33;;;;;;;;;;;;;;;16.31;32.43;100964.63;5076151;28;1152;-50
2024/01/13 12:00:58;;;;;;;;;;;;;;;15.60;34.08;100956.91;5074748;28;1074;-46
2024/01/13 12:03:24;;;;;;;;;;;;;;;15.35;34.06;100948.72;5055327;28;1018;-50
2024/01/13 12:05:50;;;;;;;;;;;;;;;15.07;34.53;100947.84;5060675;28;1111;-49
2024/01/13 12:08:15;;;;;;;;;;;;;;;17.20;31.22;100952.34;5078544;28;1202;-48
2024/01/13 12:10:42;;;;;;;;;;;;;;;16.57;31.95;100951.34;5078246;28;1259;-45
2024/01/13 12:13:16;;;;;;;;;;;;;;;15.59;33.52;100941.94;5074487;28;1976;-49
2024/01/13 12:15:45;;;;;;;;;;;;;;;17.56;30.61;100952.41;5067097;28;1112;-52
2024/01/13 12:18:20;;;;;;;;;;;;;;;16.38;32.29;100949.13;5078620;28;1151;-48
2024/01/13 12:20:46;;;;;;;;;;;;;;;15.59;33.80;100939.28;5078451;28;1154;-49
2024/01/13 12:23:12;;;;;;;;;;;;;;;15.21;34.58;100935.53;5078658;28;1031;-50
2024/01/13 12:25:38;;;;;;;;;;;;;;;17.29;30.95;100950.78;5070692;28;1042;-51
2024/01/13 12:28:03;;;;;;;;;;;;;;;17.01;31.21;100945.66;5077237;28;1099;-45
2024/01/13 12:30:29;;;;;;;;;;;;;;;15.81;33.44;100938.72;5078263;28;1221;-48
2024/01/13 12:32:55;;;;;;;;;;;;;;;17.00;31.71;100942.13;5077875;28;1120;-51
2024/01/13 12:35:24;;;;;;;;;;;;;;;16.98;31.20;100951.19;5078617;28;1984;-54
2024/01/13 12:37:51;;;;;;;;;;;;;;;15.85;33.13;100934.06;5075272;28;1484;-47
2024/01/13 12:40:18;;;;;;;;;;;;;;;15.99;33.29;100943.75;5060360;28;1141;-47
2024/01/13 12:42:44;;;;;;;;;;;;;;;17.55;30.25;100948.88;5060540;28;1195;-50